Monday, December 18, 2017, 12:55 PM GMT
Back to Local

CYYB, North Bay, Ont.

Location: , , Canada Lat: 46.35
Local Time: 12:55 PM GMT (12:55 GMT) Lon: -79.433
Time Zone: GMT Elev: 1174 ft

Show me the last for .
Show Coded

Time T Td Feel RH Dir Speed Gust Alt SLP Vis Weather Sky Remarks
2017-12-18 12:00 12 7 3 78 90° 6 - 29.89 29.99 10 -SN OVC013 None
2017-12-18 11:00 10 5 - 78 - - - 29.90 30.00 9 OVC019 None
2017-12-18 10:00 10 5 - 78 - - - 29.92 30.01 9 OVC023 None
2017-12-18 09:34 10 5 - 78 - - - 29.92 30.02 9 OVC023 None
2017-12-18 09:28 10 5 - 78 - - - 29.92 30.02 9 -SN OVC023 None
2017-12-18 09:21 10 5 - 78 - - - 29.92 30.02 9 -SN OVC025 Pressure falling rapidly
2017-12-18 09:00 10 5 - 78 - - - 29.94 30.03 9 OVC025 None
2017-12-18 08:00 9 5 - 84 - - - 29.97 30.07 9 OVC025 None
2017-12-18 07:00 9 5 - 84 - - - 29.99 30.09 9 OVC027 None
2017-12-18 06:00 9 5 - 84 - - - 30.02 30.12 9 FEW029 OVC110 None
2017-12-18 05:00 9 3 - 78 - - - 30.03 30.13 9 OVC110 None
2017-12-18 04:00 9 3 - 78 - - - 30.05 30.16 9 BKN090 None
2017-12-18 03:00 7 3 -3 84 90° 6 - 30.07 30.18 15 OVC080 None
2017-12-18 02:00 7 1 -3 77 140° 6 - 30.07 30.19 15 OVC100 None
2017-12-18 01:00 5 0 -6 77 140° 6 - 30.10 30.22 15 OVC120 None
2017-12-18 00:00 5 0 -6 77 140° 6 - 30.11 30.22 15 OVC130 None
2017-12-17 23:00 5 0 -6 77 140° 6 - 30.13 30.24 15 OVC150 None
2017-12-17 22:00 3 -2 -8 77 140° 6 - 30.16 30.27 15 OVC150 None
2017-12-17 21:00 5 0 -6 77 180° 6 - 30.18 30.29 30 BKN150 OVC260 None
2017-12-17 20:00 3 -4 - 71 - Calm - 30.17 30.28 30 FEW150 BKN260 None
2017-12-17 19:00 3 -4 - 71 - Calm - 30.19 30.31 30 BKN280 None
2017-12-17 18:00 1 -6 - 70 - Calm - 30.22 30.33 30 SCT280 None
2017-12-17 17:00 0 -6 - 77 - - - 30.24 30.36 30 SCT260 None
2017-12-17 16:00 -2 -8 -10 77 100° 3 - 30.26 30.38 30 BKN260 None
2017-12-17 15:00 -6 -9 -17 83 130° 5 - 30.28 30.40 30 BKN260 None
2017-12-17 14:00 -9 -13 -21 83 110° 5 - 30.27 30.40 30 BKN260 None
2017-12-17 13:00 -13 -17 -25 83 140° 5 - 30.27 30.41 30 BKN240 None

Support USWX by starting your Amazon purchase here.